Terminal Aerodrome Forecast
Issued by NWS

Current Version | Previous Version | Graphics & Text | Print | Product List | Glossary On
Versions: 1 2 3 4 5 6 7 8 9 10 11 12 13 14 15 16 17 18 19 20 21 22 23
000
FTUS41 KRLX 151500 AAA
TAFCKB
TAF AMD
KCKB 151529Z 1515/1612 VRB03KT 5SM HZ SCT015
      TEMPO 1515/1516 BKN015
     FM151600 13004KT P6SM SCT020
     FM151900 VRB03KT P6SM SCT250
     FM160700 16004KT 4SM -SHRA BKN035=

USA.gov is the U.S. government's official web portal to all federal, state and local government web resources and services.